Strona główna
METAR-TAF:

METAR-TAF

Lotnisko :

Shawbury, Anglia

Szerokość geograficzna: 52-48N, Długość geograficzna: 002-40W, wysokość: 76 m

Aktualna obserwacja pogody

Raport powstał 44 minut temu, godzina 05:50 UTC
Wiatr 11 kt od południowo-południowy zachód
Temperatura 15°C
Wilgotność 82%
Ciśnienie 1017 hPa
Widzialność 10 km lub więcej

METAR: EGOS 210550Z AUTO 21011KT 9999 OVC050/// 15/12 Q1017

czas: 07:34 (06:34 UTC)


TAF: brakujący

Obserwacja i prognoza pogody dla ponad 4000 lotnisk (raport METAR i TAF).

Dostępne stacje oznaczono żółtymi i czerwonymi punktami na mapie.

Najedź kursorem aby zobaczyć nazwę stacji.

Kliknij aby zobaczyć obserwacje i prognozy pogody.

Aby zmienić mapę: kliknij na zielony przycisk z czarnym krzyżykiem, aby powiększyć; na zielony przycisk z myślnikiem, aby pomniejszyć; na zielone strzałki, aby przejść do map sąsiednich.


METAR-TAF: